createdAt,value
2019-03-22T00:01:31.676Z,7.96
2019-03-22T00:04:02.450Z,7.96
2019-03-22T00:06:33.160Z,7.95
2019-03-22T00:09:05.116Z,7.92
2019-03-22T00:11:35.803Z,7.91
2019-03-22T00:14:06.502Z,7.90
2019-03-22T00:16:37.192Z,7.86
2019-03-22T00:19:07.902Z,7.85
2019-03-22T00:21:39.534Z,7.77
2019-03-22T00:24:12.206Z,7.58
2019-03-22T00:26:44.013Z,7.60
2019-03-22T00:29:14.759Z,7.60
2019-03-22T00:31:45.512Z,7.67
2019-03-22T00:34:16.306Z,7.63
2019-03-22T00:36:47.038Z,7.51
2019-03-22T00:39:17.740Z,7.56
2019-03-22T00:41:48.427Z,7.53
2019-03-22T00:44:19.186Z,7.52
2019-03-22T00:46:49.899Z,7.50
2019-03-22T00:49:20.632Z,7.47
2019-03-22T00:51:51.317Z,7.46
2019-03-22T00:54:22.024Z,7.45
2019-03-22T00:56:52.676Z,7.45
2019-03-22T00:59:23.449Z,7.41
2019-03-22T01:01:54.302Z,7.42
2019-03-22T01:04:25.010Z,7.38
2019-03-22T01:06:55.734Z,7.37
2019-03-22T01:09:26.425Z,7.35
2019-03-22T01:11:57.207Z,7.29
2019-03-22T01:14:28.957Z,7.24
2019-03-22T01:16:59.759Z,7.23
2019-03-22T01:19:30.631Z,7.07
2019-03-22T01:22:01.328Z,7.13
2019-03-22T01:24:32.117Z,7.13
2019-03-22T01:27:02.787Z,7.10
2019-03-22T01:29:33.514Z,7.02
2019-03-22T01:32:04.168Z,6.92
2019-03-22T01:34:34.945Z,6.97
2019-03-22T01:37:05.647Z,6.96
2019-03-22T01:39:36.346Z,6.97
2019-03-22T01:42:07.049Z,6.93
2019-03-22T01:44:37.726Z,6.93
2019-03-22T01:47:09.919Z,6.92
2019-03-22T01:49:40.670Z,6.90
2019-03-22T01:52:11.319Z,6.90
2019-03-22T01:54:42.079Z,6.87
2019-03-22T01:57:12.707Z,6.81
2019-03-22T01:59:43.443Z,6.84
2019-03-22T02:02:14.233Z,6.81
2019-03-22T02:04:45.040Z,6.63
2019-03-22T02:07:15.715Z,6.68
2019-03-22T02:09:46.509Z,6.65
2019-03-22T02:12:17.281Z,6.65
2019-03-22T02:14:48.062Z,6.62
2019-03-22T02:17:18.791Z,6.54
2019-03-22T02:19:49.789Z,6.61
2019-03-22T02:22:20.469Z,6.63
2019-03-22T02:24:52.183Z,6.62
2019-03-22T02:27:22.945Z,6.59
2019-03-22T02:29:53.679Z,6.58
2019-03-22T02:32:24.508Z,6.55
2019-03-22T02:34:55.220Z,6.46
2019-03-22T02:37:25.896Z,6.44
2019-03-22T02:39:56.594Z,6.41
2019-03-22T02:42:27.254Z,6.41
2019-03-22T02:44:59.285Z,6.39
2019-03-22T02:47:29.922Z,6.10
2019-03-22T02:50:11.664Z,6.18
2019-03-22T02:52:33.083Z,6.25
2019-03-22T02:55:03.820Z,6.28
2019-03-22T02:57:34.455Z,6.29
2019-03-22T03:00:06.844Z,6.28
2019-03-22T03:02:37.621Z,6.30
2019-03-22T03:05:08.895Z,6.29
2019-03-22T03:07:39.606Z,6.27
2019-03-22T03:10:11.399Z,6.27
2019-03-22T03:12:42.061Z,6.25
2019-03-22T03:15:14.244Z,6.24
2019-03-22T03:17:44.894Z,6.20
2019-03-22T03:20:16.423Z,6.18
2019-03-22T03:22:47.497Z,6.15
2019-03-22T03:25:18.431Z,6.14
2019-03-22T03:27:49.138Z,6.14
2019-03-22T03:30:20.464Z,6.12
2019-03-22T03:32:51.250Z,6.11
2019-03-22T03:35:22.002Z,6.07
2019-03-22T03:37:55.527Z,6.01
2019-03-22T03:40:26.223Z,6.00
2019-03-22T03:42:57.210Z,5.93
2019-03-22T03:45:34.228Z,5.92
2019-03-22T03:48:06.242Z,5.91
2019-03-22T03:50:37.059Z,5.91
2019-03-22T03:53:08.132Z,5.87
2019-03-22T03:55:38.986Z,5.88
2019-03-22T03:58:09.700Z,5.76
2019-03-22T04:00:40.558Z,5.76
2019-03-22T04:03:11.269Z,5.76
2019-03-22T04:05:44.861Z,5.74
2019-03-22T04:08:17.708Z,5.64
2019-03-22T04:10:48.440Z,5.69
2019-03-22T04:13:19.112Z,5.63
2019-03-22T04:15:49.932Z,5.73
2019-03-22T04:18:20.655Z,5.73
2019-03-22T04:20:52.661Z,5.74
2019-03-22T04:23:23.376Z,5.84
2019-03-22T04:25:54.174Z,5.73
2019-03-22T04:28:24.995Z,5.61
2019-03-22T04:30:56.677Z,5.71
2019-03-22T04:33:27.373Z,5.67
2019-03-22T04:35:59.860Z,5.72
2019-03-22T04:38:32.109Z,5.61
2019-03-22T04:41:02.964Z,5.50
2019-03-22T04:43:33.719Z,5.48
2019-03-22T04:46:05.363Z,5.30
2019-03-22T04:48:37.758Z,5.34
2019-03-22T04:51:10.202Z,5.36
2019-03-22T04:53:54.770Z,5.42
2019-03-22T04:56:34.738Z,5.29
2019-03-22T04:59:18.907Z,5.25
2019-03-22T05:01:46.022Z,5.08
2019-03-22T05:04:17.821Z,5.24
2019-03-22T05:06:50.342Z,4.99
2019-03-22T05:09:28.079Z,4.92
2019-03-22T05:12:01.144Z,4.85
2019-03-22T05:14:34.165Z,5.26
2019-03-22T05:17:08.039Z,4.99
2019-03-22T05:19:41.570Z,5.06
2019-03-22T05:22:14.363Z,5.00
2019-03-22T05:24:51.081Z,4.99
2019-03-22T05:27:23.165Z,4.68
2019-03-22T05:29:56.609Z,4.91
2019-03-22T05:32:29.667Z,5.17
2019-03-22T05:35:07.826Z,5.27
2019-03-22T05:37:40.422Z,5.09
2019-03-22T05:40:11.150Z,5.24
2019-03-22T05:42:45.417Z,5.30
2019-03-22T05:45:16.125Z,5.31
2019-03-22T05:47:46.831Z,5.33
2019-03-22T05:50:17.661Z,5.42
2019-03-22T05:52:48.389Z,5.31
2019-03-22T05:55:20.733Z,5.38
2019-03-22T05:57:51.497Z,5.31
2019-03-22T06:00:22.166Z,5.53
2019-03-22T06:02:52.912Z,5.75
2019-03-22T06:05:23.753Z,5.90
2019-03-22T06:07:54.559Z,5.79
2019-03-22T06:10:25.914Z,5.92
2019-03-22T06:12:56.892Z,6.05
2019-03-22T06:15:27.821Z,5.86
2019-03-22T06:17:58.911Z,5.99
2019-03-22T06:20:29.680Z,6.01
2019-03-22T06:23:01.121Z,6.23
2019-03-22T06:25:31.899Z,6.16
2019-03-22T06:28:02.711Z,6.11
2019-03-22T06:30:33.611Z,6.37
2019-03-22T06:33:04.328Z,6.09
2019-03-22T06:35:35.116Z,6.02
2019-03-22T06:38:06.082Z,6.09
2019-03-22T06:40:36.788Z,6.02
2019-03-22T06:43:07.571Z,6.18
2019-03-22T06:45:38.294Z,6.29
2019-03-22T06:48:09.189Z,6.42
2019-03-22T06:50:39.960Z,6.41
2019-03-22T06:53:10.736Z,6.56
2019-03-22T06:55:41.515Z,6.55
2019-03-22T06:58:13.819Z,6.63
2019-03-22T07:00:44.698Z,6.79
2019-03-22T07:03:15.640Z,6.90
2019-03-22T07:05:46.468Z,6.89
2019-03-22T07:08:17.230Z,7.03
2019-03-22T07:10:48.038Z,6.93
2019-03-22T07:13:19.060Z,7.20
2019-03-22T07:15:50.043Z,7.39
2019-03-22T07:18:20.805Z,7.39
2019-03-22T07:20:51.538Z,7.40
2019-03-22T07:23:22.419Z,7.35
2019-03-22T07:25:53.134Z,6.94
2019-03-22T07:28:23.863Z,7.20
2019-03-22T07:30:54.798Z,7.24
2019-03-22T07:33:25.609Z,7.44
2019-03-22T07:35:56.391Z,7.52
2019-03-22T07:38:27.599Z,7.24
2019-03-22T07:40:58.585Z,7.29
2019-03-22T07:43:29.436Z,7.51
2019-03-22T07:46:00.406Z,7.60
2019-03-22T07:48:31.264Z,7.73
2019-03-22T07:51:03.152Z,7.79
2019-03-22T07:53:33.908Z,7.96
2019-03-22T07:56:04.791Z,8.34
2019-03-22T07:58:35.606Z,8.44
2019-03-22T08:01:06.468Z,8.63
2019-03-22T08:03:37.230Z,8.58
2019-03-22T08:06:08.010Z,8.51
2019-03-22T08:08:38.725Z,8.45
2019-03-22T08:11:09.392Z,8.49
2019-03-22T08:13:40.128Z,8.19
2019-03-22T08:16:10.827Z,8.26
2019-03-22T08:18:41.663Z,8.29
2019-03-22T08:21:12.390Z,8.34
2019-03-22T08:23:43.130Z,8.43
2019-03-22T08:26:13.849Z,8.44
2019-03-22T08:28:44.728Z,8.42
2019-03-22T08:31:15.512Z,8.51
2019-03-22T08:33:46.293Z,8.53
2019-03-22T08:36:16.999Z,8.72
2019-03-22T08:38:47.677Z,8.88
2019-03-22T08:41:19.378Z,9.04
2019-03-22T08:43:50.500Z,9.08
2019-03-22T08:46:21.803Z,9.06
2019-03-22T08:48:54.108Z,9.13
2019-03-22T08:51:35.071Z,9.18
2019-03-22T08:54:06.015Z,9.32
2019-03-22T08:56:36.624Z,9.52
2019-03-22T08:59:08.829Z,9.68
2019-03-22T09:01:41.652Z,9.76
2019-03-22T09:04:14.235Z,9.92
2019-03-22T09:06:46.180Z,10.05
2019-03-22T09:09:19.848Z,10.16
2019-03-22T09:12:01.968Z,10.29
2019-03-22T09:15:15.908Z,10.40
2019-03-22T09:17:53.483Z,10.26
2019-03-22T09:20:28.312Z,10.47
2019-03-22T09:23:04.411Z,10.44
2019-03-22T09:25:38.556Z,10.61
2019-03-22T09:28:11.794Z,10.85
2019-03-22T09:30:43.182Z,10.93
2019-03-22T09:33:15.659Z,11.16
2019-03-22T09:35:47.367Z,11.32
2019-03-22T09:38:18.562Z,11.46
2019-03-22T09:40:49.507Z,11.45
2019-03-22T09:43:22.687Z,11.55
2019-03-22T09:45:56.156Z,11.60
2019-03-22T09:48:29.216Z,11.73
2019-03-22T09:51:01.309Z,11.82
2019-03-22T09:53:33.981Z,12.10
2019-03-22T09:56:06.057Z,12.17
2019-03-22T09:58:38.331Z,12.20
2019-03-22T10:02:02.488Z,12.25
2019-03-22T10:04:48.940Z,12.29
2019-03-22T10:07:26.904Z,12.43
2019-03-22T10:10:56.067Z,12.50
2019-03-22T10:13:52.716Z,12.57
2019-03-22T10:16:57.000Z,12.59
2019-03-22T10:19:42.140Z,12.68
2019-03-22T10:22:15.651Z,12.76
2019-03-22T10:24:46.629Z,12.87
2019-03-22T10:27:21.966Z,12.88
2019-03-22T10:29:52.867Z,12.92
2019-03-22T10:32:24.070Z,13.07
2019-03-22T10:34:55.216Z,13.12
2019-03-22T10:37:26.174Z,13.15
2019-03-22T10:39:57.066Z,13.24
2019-03-22T10:42:27.938Z,13.24
2019-03-22T10:44:58.722Z,13.30
2019-03-22T10:47:29.946Z,13.38
2019-03-22T10:50:00.799Z,13.46
2019-03-22T10:52:31.631Z,13.56
2019-03-22T10:55:17.210Z,13.62
2019-03-22T10:57:34.915Z,13.65
2019-03-22T11:00:06.932Z,13.66
2019-03-22T11:02:38.455Z,13.67
2019-03-22T11:05:10.107Z,13.87
2019-03-22T11:07:40.923Z,13.86
2019-03-22T11:10:13.698Z,13.97
2019-03-22T11:12:44.445Z,14.10
2019-03-22T11:15:15.941Z,14.07
2019-03-22T11:17:46.733Z,14.12
2019-03-22T11:20:17.731Z,14.05
2019-03-22T11:22:48.999Z,14.07
2019-03-22T11:25:20.591Z,14.07
2019-03-22T11:27:51.705Z,14.21
2019-03-22T11:30:22.618Z,14.22
2019-03-22T11:32:59.329Z,14.20
2019-03-22T11:35:30.813Z,14.24
2019-03-22T11:38:02.532Z,14.25
2019-03-22T11:40:37.059Z,14.35
2019-03-22T11:43:09.061Z,14.41
2019-03-22T11:45:39.961Z,14.48
2019-03-22T11:48:11.991Z,14.46
2019-03-22T11:53:21.923Z,14.55
2019-03-22T11:55:52.677Z,14.52
2019-03-22T11:58:23.553Z,14.56
2019-03-22T12:00:54.332Z,14.63
2019-03-22T12:03:25.110Z,14.64
2019-03-22T12:05:55.851Z,14.66
2019-03-22T12:08:26.555Z,14.63
2019-03-22T12:10:57.520Z,14.67
2019-03-22T12:13:28.208Z,14.70
2019-03-22T12:15:58.889Z,14.82
2019-03-22T12:18:29.571Z,14.75
2019-03-22T12:21:00.742Z,14.84
2019-03-22T12:23:31.392Z,14.88
2019-03-22T12:26:02.245Z,14.97
2019-03-22T12:28:33.946Z,15.04
2019-03-22T12:31:04.704Z,15.15
2019-03-22T12:33:35.415Z,15.15
2019-03-22T12:36:06.115Z,15.16
2019-03-22T12:38:36.778Z,15.27
2019-03-22T12:41:07.535Z,15.24
2019-03-22T12:43:39.606Z,15.20
2019-03-22T12:46:10.515Z,15.26
2019-03-22T12:48:41.281Z,15.31
2019-03-22T12:51:12.113Z,15.33
2019-03-22T12:53:43.055Z,15.36
2019-03-22T12:56:13.791Z,15.45
2019-03-22T12:58:44.472Z,15.40
2019-03-22T13:01:15.207Z,15.42
2019-03-22T13:03:46.091Z,15.61
2019-03-22T13:06:17.395Z,15.50
2019-03-22T13:08:55.256Z,15.47
2019-03-22T13:11:26.012Z,15.51
2019-03-22T13:13:56.828Z,15.56
2019-03-22T13:16:27.554Z,15.60
2019-03-22T13:19:01.273Z,15.58
2019-03-22T13:21:32.046Z,15.62
2019-03-22T13:24:02.907Z,15.60
2019-03-22T13:26:34.439Z,15.56
2019-03-22T13:29:05.190Z,15.56
2019-03-22T13:31:36.036Z,15.62
2019-03-22T13:34:07.179Z,15.66
2019-03-22T13:36:38.550Z,15.69
2019-03-22T13:39:19.912Z,15.71
2019-03-22T13:41:50.672Z,15.76
2019-03-22T13:44:21.456Z,15.85
2019-03-22T13:46:52.398Z,15.83
2019-03-22T13:49:23.098Z,15.82
2019-03-22T13:51:56.582Z,15.83
2019-03-22T13:54:28.027Z,15.85
2019-03-22T13:56:59.093Z,15.92
2019-03-22T13:59:32.260Z,15.91
2019-03-22T14:02:03.145Z,15.94
2019-03-22T14:04:34.039Z,15.98
2019-03-22T14:07:04.920Z,15.95
2019-03-22T14:09:35.762Z,16.00
2019-03-22T14:12:06.600Z,16.03
2019-03-22T14:14:37.402Z,16.01
2019-03-22T14:17:10.686Z,16.07
2019-03-22T14:19:41.830Z,16.06
2019-03-22T14:22:12.727Z,16.12
2019-03-22T14:24:43.440Z,16.15
2019-03-22T14:27:14.203Z,16.12
2019-03-22T14:29:45.906Z,16.09
2019-03-22T14:32:16.617Z,16.17
2019-03-22T14:34:47.335Z,16.19
2019-03-22T14:37:18.201Z,16.30
2019-03-22T14:39:49.028Z,16.35
2019-03-22T14:42:19.774Z,16.39
2019-03-22T14:44:50.586Z,16.42
2019-03-22T14:47:21.328Z,16.34
2019-03-22T14:49:52.079Z,16.32
2019-03-22T14:52:22.825Z,16.34
2019-03-22T14:54:53.655Z,16.34
2019-03-22T14:57:24.326Z,16.33
2019-03-22T14:59:58.770Z,16.34
2019-03-22T15:02:27.461Z,16.43
2019-03-22T15:04:58.207Z,16.41
2019-03-22T15:07:28.991Z,16.39
2019-03-22T15:09:59.727Z,16.39
2019-03-22T15:12:30.528Z,16.38
2019-03-22T15:15:06.324Z,16.31
2019-03-22T15:18:08.091Z,16.37
2019-03-22T15:20:57.833Z,16.39
2019-03-22T15:23:46.255Z,16.41
2019-03-22T15:26:47.851Z,16.42
2019-03-22T15:29:32.897Z,16.44
2019-03-22T15:32:34.783Z,16.46
2019-03-22T15:35:19.217Z,16.44
2019-03-22T15:38:08.963Z,16.41
2019-03-22T15:40:39.674Z,16.40
2019-03-22T15:43:10.465Z,16.46
2019-03-22T15:45:41.219Z,16.52
2019-03-22T15:48:11.975Z,16.57
2019-03-22T15:50:45.099Z,16.57
2019-03-22T15:53:15.813Z,16.58
2019-03-22T15:55:46.497Z,16.61
2019-03-22T15:58:17.251Z,16.68
2019-03-22T16:00:47.957Z,16.68
2019-03-22T16:03:18.784Z,16.72
2019-03-22T16:05:49.503Z,16.73
2019-03-22T16:08:20.294Z,16.81
2019-03-22T16:10:50.971Z,16.95
2019-03-22T16:13:21.769Z,17.15
2019-03-22T16:15:52.514Z,17.34
2019-03-22T16:18:23.349Z,17.42
2019-03-22T16:21:00.282Z,17.58
2019-03-22T16:23:33.300Z,17.48
2019-03-22T16:26:03.869Z,17.49
2019-03-22T16:28:36.317Z,17.61
2019-03-22T16:31:07.356Z,17.54
2019-03-22T16:33:39.663Z,17.64
2019-03-22T16:36:10.445Z,17.68
2019-03-22T16:38:42.610Z,17.69
2019-03-22T16:41:16.690Z,17.55
2019-03-22T16:43:50.397Z,17.38
2019-03-22T16:46:22.778Z,17.37
2019-03-22T16:48:53.522Z,17.22
2019-03-22T16:51:24.188Z,17.24
2019-03-22T16:53:54.919Z,17.25
2019-03-22T16:56:25.594Z,17.17
2019-03-22T16:58:58.111Z,16.92
2019-03-22T17:01:31.135Z,16.72
2019-03-22T17:04:04.734Z,16.70
2019-03-22T17:06:34.300Z,16.41
2019-03-22T17:09:06.235Z,16.28
2019-03-22T17:11:37.049Z,16.17
2019-03-22T17:14:07.763Z,15.96
2019-03-22T17:16:41.518Z,15.78
2019-03-22T17:19:12.281Z,15.66
2019-03-22T17:21:42.952Z,15.48
2019-03-22T17:24:16.703Z,15.35
2019-03-22T17:26:50.894Z,15.22
2019-03-22T17:29:22.078Z,15.08
2019-03-22T17:31:52.836Z,14.91
2019-03-22T17:34:24.038Z,14.76
2019-03-22T17:36:55.160Z,14.61
2019-03-22T17:39:30.370Z,14.54
2019-03-22T17:42:02.219Z,14.51
2019-03-22T17:44:36.136Z,14.39
2019-03-22T17:47:07.600Z,14.30
2019-03-22T17:49:47.598Z,14.23
2019-03-22T17:52:11.348Z,14.17
2019-03-22T17:54:43.238Z,14.05
2019-03-22T17:57:18.847Z,13.98
2019-03-22T17:59:47.583Z,13.90
2019-03-22T18:02:18.487Z,13.81
2019-03-22T18:04:51.653Z,13.74
2019-03-22T18:07:27.329Z,13.69
2019-03-22T18:09:58.039Z,13.62
2019-03-22T18:12:28.695Z,13.53
2019-03-22T18:14:59.455Z,13.43
2019-03-22T18:17:30.388Z,13.39
2019-03-22T18:20:01.765Z,13.36
2019-03-22T18:22:32.705Z,13.24
2019-03-22T18:25:03.366Z,13.19
2019-03-22T18:27:35.510Z,13.23
2019-03-22T18:30:10.624Z,13.19
2019-03-22T18:32:41.467Z,13.15
2019-03-22T18:35:13.783Z,13.09
2019-03-22T18:37:44.694Z,13.00
2019-03-22T18:40:15.521Z,12.99
2019-03-22T18:42:46.351Z,12.97
2019-03-22T18:45:17.346Z,12.98
2019-03-22T18:47:48.017Z,12.95
2019-03-22T18:50:18.656Z,12.91
2019-03-22T18:52:49.553Z,12.87
2019-03-22T18:55:21.911Z,12.94
2019-03-22T18:57:52.844Z,12.90
2019-03-22T19:00:23.881Z,12.88
2019-03-22T19:02:54.676Z,12.83
2019-03-22T19:05:25.376Z,12.79
2019-03-22T19:07:56.287Z,12.76
2019-03-22T19:10:29.063Z,12.70
2019-03-22T19:12:59.873Z,12.67
2019-03-22T19:15:30.711Z,12.62
2019-03-22T19:18:02.099Z,12.57
2019-03-22T19:20:37.024Z,12.49
2019-03-22T19:23:07.708Z,12.44
2019-03-22T19:25:38.320Z,12.38
2019-03-22T19:28:10.022Z,12.33
2019-03-22T19:30:43.498Z,12.28
2019-03-22T19:33:14.431Z,12.22
2019-03-22T19:35:45.099Z,12.17
2019-03-22T19:38:15.987Z,12.06
2019-03-22T19:40:47.813Z,12.00
2019-03-22T19:43:20.092Z,12.01
2019-03-22T19:45:56.147Z,11.99
2019-03-22T19:48:30.392Z,11.93
2019-03-22T19:51:01.562Z,11.90
2019-03-22T19:53:37.168Z,11.88
2019-03-22T19:56:10.151Z,11.85
2019-03-22T19:58:46.438Z,11.82
2019-03-22T20:01:17.198Z,11.79
2019-03-22T20:03:47.874Z,11.76
2019-03-22T20:06:21.597Z,11.71
2019-03-22T20:08:53.340Z,11.67
2019-03-22T20:11:24.087Z,11.64
2019-03-22T20:13:54.999Z,11.61
2019-03-22T20:16:25.697Z,11.58
2019-03-22T20:18:56.397Z,11.54
2019-03-22T20:21:27.066Z,11.50
2019-03-22T20:23:57.972Z,11.47
2019-03-22T20:26:28.661Z,11.41
2019-03-22T20:28:59.560Z,11.38
2019-03-22T20:31:32.695Z,11.34
2019-03-22T20:34:03.508Z,11.30
2019-03-22T20:36:34.318Z,11.24
2019-03-22T20:39:07.170Z,11.19
2019-03-22T20:41:39.354Z,11.18
2019-03-22T20:44:10.063Z,11.11
2019-03-22T20:46:41.130Z,11.09
2019-03-22T20:49:12.080Z,11.03
2019-03-22T20:51:42.777Z,11.00
2019-03-22T20:54:21.098Z,10.99
2019-03-22T20:56:56.085Z,10.93
2019-03-22T20:59:30.853Z,10.92
2019-03-22T21:02:02.068Z,10.92
2019-03-22T21:04:35.553Z,10.90
2019-03-22T21:07:08.719Z,10.85
2019-03-22T21:09:39.492Z,10.83
2019-03-22T21:12:10.186Z,10.79
2019-03-22T21:14:40.990Z,10.75
2019-03-22T21:17:12.154Z,10.71
2019-03-22T21:19:43.322Z,10.68
2019-03-22T21:22:17.114Z,10.62
2019-03-22T21:24:52.920Z,10.59
2019-03-22T21:27:23.614Z,10.56
2019-03-22T21:29:54.339Z,10.52
2019-03-22T21:32:26.470Z,10.48
2019-03-22T21:34:57.338Z,10.45
2019-03-22T21:37:28.139Z,10.42
2019-03-22T21:39:58.870Z,10.38
2019-03-22T21:42:29.668Z,10.34
2019-03-22T21:45:00.470Z,10.32
2019-03-22T21:47:31.197Z,10.28
2019-03-22T21:50:01.833Z,10.17
2019-03-22T21:52:32.672Z,10.19
2019-03-22T21:55:06.552Z,10.17
2019-03-22T21:57:40.727Z,10.14
2019-03-22T22:00:11.827Z,10.09
2019-03-22T22:02:42.709Z,10.09
2019-03-22T22:05:16.932Z,10.03
2019-03-22T22:07:47.678Z,10.00
2019-03-22T22:10:18.362Z,10.00
2019-03-22T22:12:50.000Z,9.98
2019-03-22T22:15:26.854Z,9.96
2019-03-22T22:17:58.804Z,9.93
2019-03-22T22:20:29.551Z,9.90
2019-03-22T22:23:00.253Z,9.87
2019-03-22T22:25:30.932Z,9.85
2019-03-22T22:28:05.050Z,9.82
2019-03-22T22:30:37.769Z,9.80
2019-03-22T22:33:08.052Z,9.79
2019-03-22T22:35:41.192Z,9.78
2019-03-22T22:38:12.009Z,9.76
2019-03-22T22:40:42.754Z,9.75
2019-03-22T22:43:13.582Z,9.75
2019-03-22T22:45:44.374Z,9.76
2019-03-22T22:48:15.081Z,9.73
2019-03-22T22:50:45.988Z,9.75
2019-03-22T22:53:16.685Z,9.78
2019-03-22T22:55:50.848Z,9.79
2019-03-22T22:58:28.594Z,9.82
2019-03-22T23:00:59.373Z,9.84
2019-03-22T23:03:36.141Z,9.94
2019-03-22T23:06:10.854Z,9.98
2019-03-22T23:08:42.634Z,10.08
2019-03-22T23:11:15.216Z,10.08
2019-03-22T23:14:00.531Z,10.13
2019-03-22T23:16:37.823Z,10.16
2019-03-22T23:19:15.484Z,10.14
2019-03-22T23:21:48.432Z,10.15
2019-03-22T23:25:08.082Z,10.18
2019-03-22T23:27:42.694Z,10.17
2019-03-22T23:30:32.866Z,10.15
2019-03-22T23:36:35.559Z,10.16
2019-03-22T23:39:18.783Z,10.16
2019-03-22T23:41:58.057Z,10.17
2019-03-22T23:44:35.072Z,10.18
2019-03-22T23:47:29.870Z,10.19
2019-03-22T23:50:17.421Z,10.18
2019-03-22T23:52:52.561Z,10.24
2019-03-22T23:55:23.938Z,10.24
2019-03-22T23:57:58.513Z,10.26
